sensor_id;sensor_type;location;lat;lon;timestamp;temperature;humidity
69393;SHT31;56582;44.624;20.378;2022-11-15T00:01:21;10.25;80.71
69393;SHT31;56582;44.624;20.378;2022-11-15T00:03:50;10.31;80.59
69393;SHT31;56582;44.624;20.378;2022-11-15T00:06:16;10.37;80.37
69393;SHT31;56582;44.624;20.378;2022-11-15T00:08:41;10.37;80.29
69393;SHT31;56582;44.624;20.378;2022-11-15T00:11:09;10.31;79.97
69393;SHT31;56582;44.624;20.378;2022-11-15T00:13:34;10.31;80.18
69393;SHT31;56582;44.624;20.378;2022-11-15T00:16:00;10.19;80.45
69393;SHT31;56582;44.624;20.378;2022-11-15T00:18:27;9.87;81.35
69393;SHT31;56582;44.624;20.378;2022-11-15T00:20:52;9.86;81.64
69393;SHT31;56582;44.624;20.378;2022-11-15T00:23:18;9.93;81.48
69393;SHT31;56582;44.624;20.378;2022-11-15T00:25:43;9.88;81.57
69393;SHT31;56582;44.624;20.378;2022-11-15T00:28:08;9.98;81.48
69393;SHT31;56582;44.624;20.378;2022-11-15T00:30:34;10.19;80.81
69393;SHT31;56582;44.624;20.378;2022-11-15T00:33:04;10.08;81.01
69393;SHT31;56582;44.624;20.378;2022-11-15T00:35:31;9.94;81.62
69393;SHT31;56582;44.624;20.378;2022-11-15T00:37:58;9.88;81.74
69393;SHT31;56582;44.624;20.378;2022-11-15T00:40:23;9.84;81.89
69393;SHT31;56582;44.624;20.378;2022-11-15T00:42:48;9.69;82.22
69393;SHT31;56582;44.624;20.378;2022-11-15T00:45:16;9.60;82.57
69393;SHT31;56582;44.624;20.378;2022-11-15T00:47:44;9.53;82.92
69393;SHT31;56582;44.624;20.378;2022-11-15T00:50:10;9.69;82.57
69393;SHT31;56582;44.624;20.378;2022-11-15T00:52:35;9.69;82.35
69393;SHT31;56582;44.624;20.378;2022-11-15T00:55:01;9.63;82.70
69393;SHT31;56582;44.624;20.378;2022-11-15T00:57:26;9.71;82.36
69393;SHT31;56582;44.624;20.378;2022-11-15T00:59:52;10.04;81.54
69393;SHT31;56582;44.624;20.378;2022-11-15T01:02:17;9.76;82.04
69393;SHT31;56582;44.624;20.378;2022-11-15T01:04:43;9.77;82.07
69393;SHT31;56582;44.624;20.378;2022-11-15T01:07:08;9.52;82.99
69393;SHT31;56582;44.624;20.378;2022-11-15T01:09:34;9.35;83.89
69393;SHT31;56582;44.624;20.378;2022-11-15T01:11:59;9.44;83.79
69393;SHT31;56582;44.624;20.378;2022-11-15T01:14:25;9.79;84.22
69393;SHT31;56582;44.624;20.378;2022-11-15T01:16:50;9.80;84.36
69393;SHT31;56582;44.624;20.378;2022-11-15T01:19:15;9.47;86.13
69393;SHT31;56582;44.624;20.378;2022-11-15T01:21:41;9.18;87.97
69393;SHT31;56582;44.624;20.378;2022-11-15T01:24:07;9.31;88.64
69393;SHT31;56582;44.624;20.378;2022-11-15T01:26:33;9.46;87.71
69393;SHT31;56582;44.624;20.378;2022-11-15T01:28:58;8.98;88.82
69393;SHT31;56582;44.624;20.378;2022-11-15T01:31:24;9.00;89.03
69393;SHT31;56582;44.624;20.378;2022-11-15T01:33:49;8.98;89.23
69393;SHT31;56582;44.624;20.378;2022-11-15T01:36:20;8.87;90.20
69393;SHT31;56582;44.624;20.378;2022-11-15T01:38:52;8.54;91.96
69393;SHT31;56582;44.624;20.378;2022-11-15T01:41:20;8.65;91.99
69393;SHT31;56582;44.624;20.378;2022-11-15T01:43:50;8.59;92.10
69393;SHT31;56582;44.624;20.378;2022-11-15T01:46:33;8.63;92.02
69393;SHT31;56582;44.624;20.378;2022-11-15T01:49:06;8.53;92.04
69393;SHT31;56582;44.624;20.378;2022-11-15T01:51:36;8.47;92.45
69393;SHT31;56582;44.624;20.378;2022-11-15T01:54:06;8.42;92.81
69393;SHT31;56582;44.624;20.378;2022-11-15T01:56:38;8.73;92.53
69393;SHT31;56582;44.624;20.378;2022-11-15T01:59:08;8.78;91.73
69393;SHT31;56582;44.624;20.378;2022-11-15T02:01:34;8.78;91.31
69393;SHT31;56582;44.624;20.378;2022-11-15T02:04:11;8.82;91.78
69393;SHT31;56582;44.624;20.378;2022-11-15T02:06:38;8.68;91.86
69393;SHT31;56582;44.624;20.378;2022-11-15T02:09:04;8.46;92.76
69393;SHT31;56582;44.624;20.378;2022-11-15T02:11:29;8.56;92.59
69393;SHT31;56582;44.624;20.378;2022-11-15T02:13:56;8.57;92.72
69393;SHT31;56582;44.624;20.378;2022-11-15T02:25:03;8.39;92.46
69393;SHT31;56582;44.624;20.378;2022-11-15T02:30:48;8.43;92.82
69393;SHT31;56582;44.624;20.378;2022-11-15T02:35:48;8.75;91.26
69393;SHT31;56582;44.624;20.378;2022-11-15T02:41:00;8.26;92.86
69393;SHT31;56582;44.624;20.378;2022-11-15T02:44:01;8.25;93.04
69393;SHT31;56582;44.624;20.378;2022-11-15T02:49:41;8.05;93.57
69393;SHT31;56582;44.624;20.378;2022-11-15T02:52:06;8.21;93.66
69393;SHT31;56582;44.624;20.378;2022-11-15T02:54:33;8.30;93.20
69393;SHT31;56582;44.624;20.378;2022-11-15T02:57:04;8.34;92.93
69393;SHT31;56582;44.624;20.378;2022-11-15T03:10:09;8.70;91.54
69393;SHT31;56582;44.624;20.378;2022-11-15T03:18:41;8.68;91.50
69393;SHT31;56582;44.624;20.378;2022-11-15T03:21:09;8.70;91.57
69393;SHT31;56582;44.624;20.378;2022-11-15T03:23:39;8.82;91.38
69393;SHT31;56582;44.624;20.378;2022-11-15T03:26:07;8.95;90.50
69393;SHT31;56582;44.624;20.378;2022-11-15T03:28:38;8.77;90.90
69393;SHT31;56582;44.624;20.378;2022-11-15T03:31:07;8.65;91.03
69393;SHT31;56582;44.624;20.378;2022-11-15T03:33:55;8.75;90.82
69393;SHT31;56582;44.624;20.378;2022-11-15T03:36:23;8.60;91.07
69393;SHT31;56582;44.624;20.378;2022-11-15T03:38:53;8.61;91.55
69393;SHT31;56582;44.624;20.378;2022-11-15T03:41:31;8.74;91.17
69393;SHT31;56582;44.624;20.378;2022-11-15T03:46:41;8.88;90.41
69393;SHT31;56582;44.624;20.378;2022-11-15T03:49:19;8.85;90.50
69393;SHT31;56582;44.624;20.378;2022-11-15T03:51:45;8.75;90.87
69393;SHT31;56582;44.624;20.378;2022-11-15T03:54:12;8.70;90.94
69393;SHT31;56582;44.624;20.378;2022-11-15T03:56:38;8.54;91.35
69393;SHT31;56582;44.624;20.378;2022-11-15T03:59:03;8.54;91.62
69393;SHT31;56582;44.624;20.378;2022-11-15T04:01:28;8.52;91.53
69393;SHT31;56582;44.624;20.378;2022-11-15T04:03:54;8.33;91.93
69393;SHT31;56582;44.624;20.378;2022-11-15T04:06:19;8.25;92.40
69393;SHT31;56582;44.624;20.378;2022-11-15T04:08:45;8.26;92.65
69393;SHT31;56582;44.624;20.378;2022-11-15T04:11:10;8.23;92.73
69393;SHT31;56582;44.624;20.378;2022-11-15T04:13:36;8.30;92.64
69393;SHT31;56582;44.624;20.378;2022-11-15T04:16:01;8.42;92.23
69393;SHT31;56582;44.624;20.378;2022-11-15T04:18:26;8.52;91.69
69393;SHT31;56582;44.624;20.378;2022-11-15T04:20:52;8.65;90.93
69393;SHT31;56582;44.624;20.378;2022-11-15T04:23:36;8.67;90.72
69393;SHT31;56582;44.624;20.378;2022-11-15T04:26:30;8.65;90.73
69393;SHT31;56582;44.624;20.378;2022-11-15T04:28:56;8.59;90.55
69393;SHT31;56582;44.624;20.378;2022-11-15T04:31:40;8.65;90.59
69393;SHT31;56582;44.624;20.378;2022-11-15T04:34:05;8.63;90.35
69393;SHT31;56582;44.624;20.378;2022-11-15T04:36:31;8.37;90.64
69393;SHT31;56582;44.624;20.378;2022-11-15T04:39:14;8.03;91.70
69393;SHT31;56582;44.624;20.378;2022-11-15T04:41:40;8.06;92.05
69393;SHT31;56582;44.624;20.378;2022-11-15T04:44:05;7.92;92.48
69393;SHT31;56582;44.624;20.378;2022-11-15T04:46:31;7.82;93.60
69393;SHT31;56582;44.624;20.378;2022-11-15T04:48:56;7.78;94.51
69393;SHT31;56582;44.624;20.378;2022-11-15T04:51:21;7.89;95.02
69393;SHT31;56582;44.624;20.378;2022-11-15T04:53:47;7.89;95.68
69393;SHT31;56582;44.624;20.378;2022-11-15T04:56:13;7.86;94.74
69393;SHT31;56582;44.624;20.378;2022-11-15T04:58:38;7.84;94.54
69393;SHT31;56582;44.624;20.378;2022-11-15T05:01:11;7.92;95.11
69393;SHT31;56582;44.624;20.378;2022-11-15T05:03:37;8.01;94.26
69393;SHT31;56582;44.624;20.378;2022-11-15T05:06:21;8.02;94.98
69393;SHT31;56582;44.624;20.378;2022-11-15T05:08:46;7.82;94.19
69393;SHT31;56582;44.624;20.378;2022-11-15T05:11:12;7.96;93.49
69393;SHT31;56582;44.624;20.378;2022-11-15T05:13:37;7.91;93.42
69393;SHT31;56582;44.624;20.378;2022-11-15T05:16:03;7.91;93.57
69393;SHT31;56582;44.624;20.378;2022-11-15T05:18:29;8.01;93.33
69393;SHT31;56582;44.624;20.378;2022-11-15T05:20:54;8.06;93.57
69393;SHT31;56582;44.624;20.378;2022-11-15T05:23:19;8.13;93.66
69393;SHT31;56582;44.624;20.378;2022-11-15T05:25:45;7.99;93.40
69393;SHT31;56582;44.624;20.378;2022-11-15T05:28:11;8.07;93.40
69393;SHT31;56582;44.624;20.378;2022-11-15T05:30:36;7.98;93.59
69393;SHT31;56582;44.624;20.378;2022-11-15T05:33:01;7.98;93.61
69393;SHT31;56582;44.624;20.378;2022-11-15T05:35:34;8.07;93.47
69393;SHT31;56582;44.624;20.378;2022-11-15T05:38:00;8.21;93.22
69393;SHT31;56582;44.624;20.378;2022-11-15T05:40:27;8.26;94.03
69393;SHT31;56582;44.624;20.378;2022-11-15T05:42:53;8.36;93.50
69393;SHT31;56582;44.624;20.378;2022-11-15T05:45:19;8.49;93.94
69393;SHT31;56582;44.624;20.378;2022-11-15T05:47:45;8.73;93.22
69393;SHT31;56582;44.624;20.378;2022-11-15T05:50:12;8.78;91.93
69393;SHT31;56582;44.624;20.378;2022-11-15T05:52:41;8.80;92.27
69393;SHT31;56582;44.624;20.378;2022-11-15T05:55:07;8.80;91.78
69393;SHT31;56582;44.624;20.378;2022-11-15T05:57:33;8.75;92.19
69393;SHT31;56582;44.624;20.378;2022-11-15T05:59:59;8.89;93.35
69393;SHT31;56582;44.624;20.378;2022-11-15T06:02:24;9.12;94.67
69393;SHT31;56582;44.624;20.378;2022-11-15T06:04:50;9.26;95.91
69393;SHT31;56582;44.624;20.378;2022-11-15T06:07:15;9.12;93.49
69393;SHT31;56582;44.624;20.378;2022-11-15T06:09:41;9.21;92.32
69393;SHT31;56582;44.624;20.378;2022-11-15T06:12:06;9.29;92.00
69393;SHT31;56582;44.624;20.378;2022-11-15T06:14:32;9.39;93.39
69393;SHT31;56582;44.624;20.378;2022-11-15T06:16:57;9.33;92.31
69393;SHT31;56582;44.624;20.378;2022-11-15T06:19:22;9.52;92.71
69393;SHT31;56582;44.624;20.378;2022-11-15T06:21:48;9.63;91.09
69393;SHT31;56582;44.624;20.378;2022-11-15T06:24:13;9.64;90.12
69393;SHT31;56582;44.624;20.378;2022-11-15T06:26:39;9.70;89.88
69393;SHT31;56582;44.624;20.378;2022-11-15T06:29:04;9.88;90.05
69393;SHT31;56582;44.624;20.378;2022-11-15T06:31:30;9.86;88.66
69393;SHT31;56582;44.624;20.378;2022-11-15T06:33:55;9.90;89.42
69393;SHT31;56582;44.624;20.378;2022-11-15T06:36:21;9.94;89.79
69393;SHT31;56582;44.624;20.378;2022-11-15T06:38:46;9.97;90.29
69393;SHT31;56582;44.624;20.378;2022-11-15T06:41:13;10.05;91.21
69393;SHT31;56582;44.624;20.378;2022-11-15T06:43:39;10.12;89.97
69393;SHT31;56582;44.624;20.378;2022-11-15T06:46:05;10.24;89.35
69393;SHT31;56582;44.624;20.378;2022-11-15T06:48:32;10.27;89.80
69393;SHT31;56582;44.624;20.378;2022-11-15T06:51:00;10.29;90.49
69393;SHT31;56582;44.624;20.378;2022-11-15T06:53:26;10.45;88.75
69393;SHT31;56582;44.624;20.378;2022-11-15T06:55:52;10.44;88.81
69393;SHT31;56582;44.624;20.378;2022-11-15T06:58:18;10.48;88.15
69393;SHT31;56582;44.624;20.378;2022-11-15T07:00:43;10.38;88.64
69393;SHT31;56582;44.624;20.378;2022-11-15T07:03:09;10.29;87.74
69393;SHT31;56582;44.624;20.378;2022-11-15T07:05:35;10.27;87.54
69393;SHT31;56582;44.624;20.378;2022-11-15T07:08:01;10.35;88.07
69393;SHT31;56582;44.624;20.378;2022-11-15T07:10:27;10.17;88.64
69393;SHT31;56582;44.624;20.378;2022-11-15T07:12:53;10.19;88.58
69393;SHT31;56582;44.624;20.378;2022-11-15T07:15:21;9.83;88.87
69393;SHT31;56582;44.624;20.378;2022-11-15T07:17:47;9.80;89.11
69393;SHT31;56582;44.624;20.378;2022-11-15T07:20:13;9.83;89.74
69393;SHT31;56582;44.624;20.378;2022-11-15T07:22:40;9.90;89.63
69393;SHT31;56582;44.624;20.378;2022-11-15T07:25:06;9.83;89.78
69393;SHT31;56582;44.624;20.378;2022-11-15T07:27:32;10.01;88.96
69393;SHT31;56582;44.624;20.378;2022-11-15T07:29:57;10.12;88.89
69393;SHT31;56582;44.624;20.378;2022-11-15T07:32:23;10.14;89.14
69393;SHT31;56582;44.624;20.378;2022-11-15T07:34:48;10.22;88.85
69393;SHT31;56582;44.624;20.378;2022-11-15T07:37:14;10.24;88.71
69393;SHT31;56582;44.624;20.378;2022-11-15T07:39:39;10.37;88.67
69393;SHT31;56582;44.624;20.378;2022-11-15T07:42:05;10.48;88.75
69393;SHT31;56582;44.624;20.378;2022-11-15T07:44:49;10.63;87.71
69393;SHT31;56582;44.624;20.378;2022-11-15T07:47:14;10.80;87.82
69393;SHT31;56582;44.624;20.378;2022-11-15T07:49:40;11.01;87.55
69393;SHT31;56582;44.624;20.378;2022-11-15T07:52:05;11.06;87.22
69393;SHT31;56582;44.624;20.378;2022-11-15T07:54:31;11.06;87.04
69393;SHT31;56582;44.624;20.378;2022-11-15T07:56:56;11.30;86.41
69393;SHT31;56582;44.624;20.378;2022-11-15T07:59:21;11.45;85.38
69393;SHT31;56582;44.624;20.378;2022-11-15T08:01:47;11.48;85.35
69393;SHT31;56582;44.624;20.378;2022-11-15T08:04:12;11.64;84.49
69393;SHT31;56582;44.624;20.378;2022-11-15T08:06:38;11.66;84.41
69393;SHT31;56582;44.624;20.378;2022-11-15T08:09:03;11.71;84.79
69393;SHT31;56582;44.624;20.378;2022-11-15T08:11:29;11.99;83.74
69393;SHT31;56582;44.624;20.378;2022-11-15T08:13:55;11.96;83.14
69393;SHT31;56582;44.624;20.378;2022-11-15T08:16:20;12.12;83.88
69393;SHT31;56582;44.624;20.378;2022-11-15T08:18:46;12.26;82.08
69393;SHT31;56582;44.624;20.378;2022-11-15T08:21:14;12.26;82.49
69393;SHT31;56582;44.624;20.378;2022-11-15T08:23:42;12.30;83.08
69393;SHT31;56582;44.624;20.378;2022-11-15T08:26:08;12.30;83.49
69393;SHT31;56582;44.624;20.378;2022-11-15T08:28:34;12.27;83.62
69393;SHT31;56582;44.624;20.378;2022-11-15T08:30:59;12.24;82.77
69393;SHT31;56582;44.624;20.378;2022-11-15T08:33:25;12.45;82.96
69393;SHT31;56582;44.624;20.378;2022-11-15T08:35:51;12.48;82.34
69393;SHT31;56582;44.624;20.378;2022-11-15T08:38:16;12.65;83.21
69393;SHT31;56582;44.624;20.378;2022-11-15T08:40:41;12.69;81.57
69393;SHT31;56582;44.624;20.378;2022-11-15T08:43:07;12.82;81.16
69393;SHT31;56582;44.624;20.378;2022-11-15T08:45:34;12.95;80.82
69393;SHT31;56582;44.624;20.378;2022-11-15T08:48:03;13.08;80.44
69393;SHT31;56582;44.624;20.378;2022-11-15T08:50:29;13.06;80.98
69393;SHT31;56582;44.624;20.378;2022-11-15T08:52:54;13.02;80.61
69393;SHT31;56582;44.624;20.378;2022-11-15T08:55:20;13.08;80.67
69393;SHT31;56582;44.624;20.378;2022-11-15T08:57:45;13.12;80.74
69393;SHT31;56582;44.624;20.378;2022-11-15T09:00:11;13.15;81.08
69393;SHT31;56582;44.624;20.378;2022-11-15T09:02:38;13.32;79.98
69393;SHT31;56582;44.624;20.378;2022-11-15T09:05:05;13.49;79.79
69393;SHT31;56582;44.624;20.378;2022-11-15T09:07:31;13.56;79.33
69393;SHT31;56582;44.624;20.378;2022-11-15T09:09:57;13.47;80.38
69393;SHT31;56582;44.624;20.378;2022-11-15T09:12:23;13.77;78.74
69393;SHT31;56582;44.624;20.378;2022-11-15T09:14:48;13.32;79.53
69393;SHT31;56582;44.624;20.378;2022-11-15T09:17:14;13.20;79.91
69393;SHT31;56582;44.624;20.378;2022-11-15T09:19:39;13.12;79.93
69393;SHT31;56582;44.624;20.378;2022-11-15T09:22:06;13.11;80.42
69393;SHT31;56582;44.624;20.378;2022-11-15T09:24:31;13.11;80.05
69393;SHT31;56582;44.624;20.378;2022-11-15T09:26:57;13.29;80.16
69393;SHT31;56582;44.624;20.378;2022-11-15T09:29:22;13.53;79.02
69393;SHT31;56582;44.624;20.378;2022-11-15T09:31:48;13.59;78.91
69393;SHT31;56582;44.624;20.378;2022-11-15T09:34:13;13.73;79.12
69393;SHT31;56582;44.624;20.378;2022-11-15T09:36:39;13.77;77.94
69393;SHT31;56582;44.624;20.378;2022-11-15T09:39:04;13.78;78.14
69393;SHT31;56582;44.624;20.378;2022-11-15T09:41:38;13.87;77.91
69393;SHT31;56582;44.624;20.378;2022-11-15T09:49:18;14.28;77.64
69393;SHT31;56582;44.624;20.378;2022-11-15T09:51:45;14.21;77.04
69393;SHT31;56582;44.624;20.378;2022-11-15T09:56:47;14.55;77.84
69393;SHT31;56582;44.624;20.378;2022-11-15T09:59:25;14.81;76.38
69393;SHT31;56582;44.624;20.378;2022-11-15T10:04:33;14.83;75.64
69393;SHT31;56582;44.624;20.378;2022-11-15T10:07:20;15.04;75.20
69393;SHT31;56582;44.624;20.378;2022-11-15T10:10:09;14.96;74.92
69393;SHT31;56582;44.624;20.378;2022-11-15T10:12:37;15.11;75.96
69393;SHT31;56582;44.624;20.378;2022-11-15T10:15:08;15.17;74.27
69393;SHT31;56582;44.624;20.378;2022-11-15T10:17:53;15.04;74.84
69393;SHT31;56582;44.624;20.378;2022-11-15T10:20:44;15.20;74.37
69393;SHT31;56582;44.624;20.378;2022-11-15T10:23:14;15.14;73.66
69393;SHT31;56582;44.624;20.378;2022-11-15T10:25:40;15.17;75.12
69393;SHT31;56582;44.624;20.378;2022-11-15T10:28:27;15.23;75.81
69393;SHT31;56582;44.624;20.378;2022-11-15T10:30:56;15.49;75.22
69393;SHT31;56582;44.624;20.378;2022-11-15T10:33:36;15.32;75.81
69393;SHT31;56582;44.624;20.378;2022-11-15T10:38:52;15.42;75.16
69393;SHT31;56582;44.624;20.378;2022-11-15T10:41:21;15.35;75.85
69393;SHT31;56582;44.624;20.378;2022-11-15T10:46:41;15.45;75.20
69393;SHT31;56582;44.624;20.378;2022-11-15T10:51:57;15.24;74.96
69393;SHT31;56582;44.624;20.378;2022-11-15T10:54:39;15.21;73.89
69393;SHT31;56582;44.624;20.378;2022-11-15T10:57:29;15.07;73.55
69393;SHT31;56582;44.624;20.378;2022-11-15T11:02:40;15.31;74.68
69393;SHT31;56582;44.624;20.378;2022-11-15T11:07:58;15.23;76.19
69393;SHT31;56582;44.624;20.378;2022-11-15T11:10:24;15.30;75.71
69393;SHT31;56582;44.624;20.378;2022-11-15T11:12:50;15.23;75.93
69393;SHT31;56582;44.624;20.378;2022-11-15T11:15:16;15.08;76.14
69393;SHT31;56582;44.624;20.378;2022-11-15T11:20:31;14.93;76.03
69393;SHT31;56582;44.624;20.378;2022-11-15T11:28:44;14.86;76.59
69393;SHT31;56582;44.624;20.378;2022-11-15T11:36:58;14.76;77.04
69393;SHT31;56582;44.624;20.378;2022-11-15T11:45:21;14.59;76.24
69393;SHT31;56582;44.624;20.378;2022-11-15T11:50:37;14.59;77.20
69393;SHT31;56582;44.624;20.378;2022-11-15T11:53:14;14.19;78.31
69393;SHT31;56582;44.624;20.378;2022-11-15T11:55:44;14.24;78.69
69393;SHT31;56582;44.624;20.378;2022-11-15T11:58:20;14.14;79.12
69393;SHT31;56582;44.624;20.378;2022-11-15T12:16:52;14.72;75.83
69393;SHT31;56582;44.624;20.378;2022-11-15T12:19:17;14.83;75.30
69393;SHT31;56582;44.624;20.378;2022-11-15T12:29:47;14.73;76.33
69393;SHT31;56582;44.624;20.378;2022-11-15T12:32:32;14.63;76.86
69393;SHT31;56582;44.624;20.378;2022-11-15T12:35:00;14.65;76.71
69393;SHT31;56582;44.624;20.378;2022-11-15T12:45:00;14.77;75.92
69393;SHT31;56582;44.624;20.378;2022-11-15T12:47:26;14.84;76.19
69393;SHT31;56582;44.624;20.378;2022-11-15T12:49:52;14.87;76.28
69393;SHT31;56582;44.624;20.378;2022-11-15T12:52:19;14.94;76.52
69393;SHT31;56582;44.624;20.378;2022-11-15T12:54:56;15.08;76.29
69393;SHT31;56582;44.624;20.378;2022-11-15T13:03:17;14.60;77.64
69393;SHT31;56582;44.624;20.378;2022-11-15T13:08:08;14.84;77.40
69393;SHT31;56582;44.624;20.378;2022-11-15T13:10:34;15.04;77.09
69393;SHT31;56582;44.624;20.378;2022-11-15T13:13:06;15.12;77.46
69393;SHT31;56582;44.624;20.378;2022-11-15T13:15:38;15.12;75.90
69393;SHT31;56582;44.624;20.378;2022-11-15T13:20:48;15.15;73.49
69393;SHT31;56582;44.624;20.378;2022-11-15T13:23:15;15.10;73.42
69393;SHT31;56582;44.624;20.378;2022-11-15T13:28:34;15.45;72.98
69393;SHT31;56582;44.624;20.378;2022-11-15T13:33:46;15.17;73.89
69393;SHT31;56582;44.624;20.378;2022-11-15T13:36:24;15.08;73.78
69393;SHT31;56582;44.624;20.378;2022-11-15T13:38:55;15.17;73.63
69393;SHT31;56582;44.624;20.378;2022-11-15T13:41:24;15.04;73.28
69393;SHT31;56582;44.624;20.378;2022-11-15T13:43:52;14.98;73.30
69393;SHT31;56582;44.624;20.378;2022-11-15T13:46:22;14.97;73.24
69393;SHT31;56582;44.624;20.378;2022-11-15T13:48:57;14.94;73.24
69393;SHT31;56582;44.624;20.378;2022-11-15T13:51:34;14.88;74.77
69393;SHT31;56582;44.624;20.378;2022-11-15T13:54:07;14.83;74.65
69393;SHT31;56582;44.624;20.378;2022-11-15T13:56:34;14.81;75.82
69393;SHT31;56582;44.624;20.378;2022-11-15T13:59:20;14.66;75.43
69393;SHT31;56582;44.624;20.378;2022-11-15T14:01:46;14.66;76.09
69393;SHT31;56582;44.624;20.378;2022-11-15T14:04:13;14.50;75.59
69393;SHT31;56582;44.624;20.378;2022-11-15T14:06:49;14.56;73.74
69393;SHT31;56582;44.624;20.378;2022-11-15T14:09:29;14.50;73.58
69393;SHT31;56582;44.624;20.378;2022-11-15T14:11:56;14.52;74.06
69393;SHT31;56582;44.624;20.378;2022-11-15T14:14:23;14.49;74.62
69393;SHT31;56582;44.624;20.378;2022-11-15T14:17:00;14.36;75.14
69393;SHT31;56582;44.624;20.378;2022-11-15T14:22:20;14.14;75.70
69393;SHT31;56582;44.624;20.378;2022-11-15T14:30:38;14.04;76.24
69393;SHT31;56582;44.624;20.378;2022-11-15T14:33:23;13.92;77.59
69393;SHT31;56582;44.624;20.378;2022-11-15T14:35:51;13.88;78.56
69393;SHT31;56582;44.624;20.378;2022-11-15T14:38:17;13.69;79.47
69393;SHT31;56582;44.624;20.378;2022-11-15T14:40:43;13.81;79.08
69393;SHT31;56582;44.624;20.378;2022-11-15T14:43:10;13.53;79.87
69393;SHT31;56582;44.624;20.378;2022-11-15T14:45:36;13.50;79.95
69393;SHT31;56582;44.624;20.378;2022-11-15T14:48:02;13.29;80.26
69393;SHT31;56582;44.624;20.378;2022-11-15T14:50:28;13.13;81.14
69393;SHT31;56582;44.624;20.378;2022-11-15T14:52:53;12.82;81.99
69393;SHT31;56582;44.624;20.378;2022-11-15T14:55:28;12.45;83.18
69393;SHT31;56582;44.624;20.378;2022-11-15T14:57:54;12.34;83.38
69393;SHT31;56582;44.624;20.378;2022-11-15T15:00:21;12.34;83.33
69393;SHT31;56582;44.624;20.378;2022-11-15T15:02:48;12.13;83.99
69393;SHT31;56582;44.624;20.378;2022-11-15T15:05:19;12.09;84.43
69393;SHT31;56582;44.624;20.378;2022-11-15T15:07:45;11.97;84.83
69393;SHT31;56582;44.624;20.378;2022-11-15T15:10:11;12.13;84.47
69393;SHT31;56582;44.624;20.378;2022-11-15T15:12:37;12.33;83.68
69393;SHT31;56582;44.624;20.378;2022-11-15T15:15:04;12.24;84.03
69393;SHT31;56582;44.624;20.378;2022-11-15T15:17:29;12.20;84.25
69393;SHT31;56582;44.624;20.378;2022-11-15T15:19:55;11.99;84.93
69393;SHT31;56582;44.624;20.378;2022-11-15T15:22:20;12.17;84.46
69393;SHT31;56582;44.624;20.378;2022-11-15T15:24:51;12.00;84.76
69393;SHT31;56582;44.624;20.378;2022-11-15T15:27:16;12.32;83.89
69393;SHT31;56582;44.624;20.378;2022-11-15T15:29:42;12.38;83.46
69393;SHT31;56582;44.624;20.378;2022-11-15T15:32:09;12.23;83.80
69393;SHT31;56582;44.624;20.378;2022-11-15T15:34:36;12.29;83.80
69393;SHT31;56582;44.624;20.378;2022-11-15T15:37:25;12.32;83.79
69393;SHT31;56582;44.624;20.378;2022-11-15T15:39:52;12.29;83.72
69393;SHT31;56582;44.624;20.378;2022-11-15T15:42:19;12.26;84.69
69393;SHT31;56582;44.624;20.378;2022-11-15T15:44:48;12.17;84.89
69393;SHT31;56582;44.624;20.378;2022-11-15T15:47:33;12.13;84.26
69393;SHT31;56582;44.624;20.378;2022-11-15T15:50:02;11.95;84.62
69393;SHT31;56582;44.624;20.378;2022-11-15T15:52:33;11.90;84.95
69393;SHT31;56582;44.624;20.378;2022-11-15T15:54:59;11.89;84.60
69393;SHT31;56582;44.624;20.378;2022-11-15T15:57:24;11.78;85.43
69393;SHT31;56582;44.624;20.378;2022-11-15T15:59:50;11.71;85.74
69393;SHT31;56582;44.624;20.378;2022-11-15T16:02:15;11.52;86.31
69393;SHT31;56582;44.624;20.378;2022-11-15T16:04:41;11.57;86.39
69393;SHT31;56582;44.624;20.378;2022-11-15T16:07:16;11.55;86.56
69393;SHT31;56582;44.624;20.378;2022-11-15T16:09:41;11.62;86.04
69393;SHT31;56582;44.624;20.378;2022-11-15T16:12:33;11.55;86.28
69393;SHT31;56582;44.624;20.378;2022-11-15T16:15:00;11.68;85.93
69393;SHT31;56582;44.624;20.378;2022-11-15T16:17:28;11.69;85.67
69393;SHT31;56582;44.624;20.378;2022-11-15T16:19:55;11.64;85.67
69393;SHT31;56582;44.624;20.378;2022-11-15T16:22:21;11.62;85.64
69393;SHT31;56582;44.624;20.378;2022-11-15T16:24:46;11.62;85.60
69393;SHT31;56582;44.624;20.378;2022-11-15T16:27:21;11.58;85.42
69393;SHT31;56582;44.624;20.378;2022-11-15T16:29:47;11.50;85.57
69393;SHT31;56582;44.624;20.378;2022-11-15T16:32:14;11.59;85.43
69393;SHT31;56582;44.624;20.378;2022-11-15T16:34:39;11.58;85.49
69393;SHT31;56582;44.624;20.378;2022-11-15T16:37:08;11.55;85.58
69393;SHT31;56582;44.624;20.378;2022-11-15T16:39:33;11.46;85.88
69393;SHT31;56582;44.624;20.378;2022-11-15T16:41:59;11.46;85.98
69393;SHT31;56582;44.624;20.378;2022-11-15T16:44:25;11.31;86.16
69393;SHT31;56582;44.624;20.378;2022-11-15T16:46:51;11.17;86.54
69393;SHT31;56582;44.624;20.378;2022-11-15T16:49:18;11.08;86.48
69393;SHT31;56582;44.624;20.378;2022-11-15T16:51:45;11.00;86.83
69393;SHT31;56582;44.624;20.378;2022-11-15T16:54:11;11.08;86.65
69393;SHT31;56582;44.624;20.378;2022-11-15T16:56:38;10.90;87.39
69393;SHT31;56582;44.624;20.378;2022-11-15T16:59:03;10.75;88.03
69393;SHT31;56582;44.624;20.378;2022-11-15T17:01:31;10.68;88.72
69393;SHT31;56582;44.624;20.378;2022-11-15T17:03:57;10.77;88.38
69393;SHT31;56582;44.624;20.378;2022-11-15T17:06:24;10.92;88.07
69393;SHT31;56582;44.624;20.378;2022-11-15T17:08:50;11.13;86.99
69393;SHT31;56582;44.624;20.378;2022-11-15T17:11:20;11.21;86.92
69393;SHT31;56582;44.624;20.378;2022-11-15T17:13:46;11.04;86.95
69393;SHT31;56582;44.624;20.378;2022-11-15T17:16:15;11.07;86.99
69393;SHT31;56582;44.624;20.378;2022-11-15T17:18:42;11.14;86.55
69393;SHT31;56582;44.624;20.378;2022-11-15T17:21:17;11.06;86.46
69393;SHT31;56582;44.624;20.378;2022-11-15T17:23:43;10.97;87.06
69393;SHT31;56582;44.624;20.378;2022-11-15T17:26:11;11.01;87.04
69393;SHT31;56582;44.624;20.378;2022-11-15T17:28:37;11.14;86.34
69393;SHT31;56582;44.624;20.378;2022-11-15T17:31:11;10.90;86.92
69393;SHT31;56582;44.624;20.378;2022-11-15T17:33:37;10.89;86.56
69393;SHT31;56582;44.624;20.378;2022-11-15T17:36:06;10.96;86.38
69393;SHT31;56582;44.624;20.378;2022-11-15T17:38:32;10.83;86.71
69393;SHT31;56582;44.624;20.378;2022-11-15T17:41:10;10.81;87.06
69393;SHT31;56582;44.624;20.378;2022-11-15T17:43:37;11.37;85.53
69393;SHT31;56582;44.624;20.378;2022-11-15T17:46:08;11.13;85.74
69393;SHT31;56582;44.624;20.378;2022-11-15T17:48:34;10.99;86.16
69393;SHT31;56582;44.624;20.378;2022-11-15T17:51:02;10.84;86.70
69393;SHT31;56582;44.624;20.378;2022-11-15T17:53:39;10.80;86.86